sensor_id;sensor_type;location;lat;lon;timestamp;P1;durP1;ratioP1;P2;durP2;ratioP2
45970;SDS011;31681;48.982;8.394;2022-12-18T00:01:57;51.13;;;22.23;;
45970;SDS011;31681;48.982;8.394;2022-12-18T00:04:24;53.23;;;21.83;;
45970;SDS011;31681;48.982;8.394;2022-12-18T00:06:50;45.57;;;18.27;;
45970;SDS011;31681;48.982;8.394;2022-12-18T00:09:16;58.67;;;21.97;;
45970;SDS011;31681;48.982;8.394;2022-12-18T00:11:42;66.30;;;23.53;;
45970;SDS011;31681;48.982;8.394;2022-12-18T00:14:08;57.70;;;23.37;;
45970;SDS011;31681;48.982;8.394;2022-12-18T00:16:35;53.07;;;20.53;;
45970;SDS011;31681;48.982;8.394;2022-12-18T00:19:02;61.97;;;23.50;;
45970;SDS011;31681;48.982;8.394;2022-12-18T00:21:29;62.33;;;22.40;;
45970;SDS011;31681;48.982;8.394;2022-12-18T00:23:56;58.67;;;22.13;;
45970;SDS011;31681;48.982;8.394;2022-12-18T00:26:23;63.03;;;21.83;;
45970;SDS011;31681;48.982;8.394;2022-12-18T00:29:02;63.67;;;24.07;;
45970;SDS011;31681;48.982;8.394;2022-12-18T00:31:30;63.33;;;21.37;;
45970;SDS011;31681;48.982;8.394;2022-12-18T00:33:56;62.33;;;23.03;;
45970;SDS011;31681;48.982;8.394;2022-12-18T00:36:26;57.17;;;21.77;;
45970;SDS011;31681;48.982;8.394;2022-12-18T00:38:54;60.47;;;23.53;;
45970;SDS011;31681;48.982;8.394;2022-12-18T00:41:20;75.20;;;25.80;;
45970;SDS011;31681;48.982;8.394;2022-12-18T00:44:05;64.30;;;21.70;;
45970;SDS011;31681;48.982;8.394;2022-12-18T00:46:32;67.47;;;24.70;;
45970;SDS011;31681;48.982;8.394;2022-12-18T00:48:58;64.50;;;21.37;;
45970;SDS011;31681;48.982;8.394;2022-12-18T00:51:24;62.57;;;23.40;;
45970;SDS011;31681;48.982;8.394;2022-12-18T00:53:50;68.90;;;24.00;;
45970;SDS011;31681;48.982;8.394;2022-12-18T00:56:16;74.60;;;25.40;;
45970;SDS011;31681;48.982;8.394;2022-12-18T00:58:42;79.80;;;26.67;;
45970;SDS011;31681;48.982;8.394;2022-12-18T01:01:07;66.73;;;25.10;;
45970;SDS011;31681;48.982;8.394;2022-12-18T01:03:33;96.53;;;28.00;;
45970;SDS011;31681;48.982;8.394;2022-12-18T01:05:58;71.20;;;24.10;;
45970;SDS011;31681;48.982;8.394;2022-12-18T01:08:24;64.00;;;21.57;;
45970;SDS011;31681;48.982;8.394;2022-12-18T01:10:50;76.73;;;26.27;;
45970;SDS011;31681;48.982;8.394;2022-12-18T01:13:15;89.93;;;28.37;;
45970;SDS011;31681;48.982;8.394;2022-12-18T01:15:47;74.27;;;25.23;;
45970;SDS011;31681;48.982;8.394;2022-12-18T01:18:14;84.07;;;26.27;;
45970;SDS011;31681;48.982;8.394;2022-12-18T01:20:39;63.77;;;25.47;;
45970;SDS011;31681;48.982;8.394;2022-12-18T01:23:04;75.77;;;25.80;;
45970;SDS011;31681;48.982;8.394;2022-12-18T01:25:30;67.93;;;23.20;;
45970;SDS011;31681;48.982;8.394;2022-12-18T01:27:55;78.70;;;24.47;;
45970;SDS011;31681;48.982;8.394;2022-12-18T01:30:20;71.07;;;24.33;;
45970;SDS011;31681;48.982;8.394;2022-12-18T01:32:46;69.53;;;22.90;;
45970;SDS011;31681;48.982;8.394;2022-12-18T01:35:11;66.73;;;23.20;;
45970;SDS011;31681;48.982;8.394;2022-12-18T01:37:37;67.90;;;24.83;;
45970;SDS011;31681;48.982;8.394;2022-12-18T01:40:02;70.53;;;25.53;;
45970;SDS011;31681;48.982;8.394;2022-12-18T01:42:28;75.23;;;22.80;;
45970;SDS011;31681;48.982;8.394;2022-12-18T01:44:55;59.77;;;21.67;;
45970;SDS011;31681;48.982;8.394;2022-12-18T01:47:24;73.67;;;21.67;;
45970;SDS011;31681;48.982;8.394;2022-12-18T01:50:07;71.93;;;23.73;;
45970;SDS011;31681;48.982;8.394;2022-12-18T01:52:35;67.03;;;24.77;;
45970;SDS011;31681;48.982;8.394;2022-12-18T01:55:03;64.20;;;21.63;;
45970;SDS011;31681;48.982;8.394;2022-12-18T01:57:30;63.20;;;24.10;;
45970;SDS011;31681;48.982;8.394;2022-12-18T01:59:57;65.87;;;24.23;;
45970;SDS011;31681;48.982;8.394;2022-12-18T02:02:26;58.63;;;23.07;;
45970;SDS011;31681;48.982;8.394;2022-12-18T02:04:53;72.63;;;24.77;;
45970;SDS011;31681;48.982;8.394;2022-12-18T02:07:22;70.67;;;24.33;;
45970;SDS011;31681;48.982;8.394;2022-12-18T02:09:54;75.13;;;25.13;;
45970;SDS011;31681;48.982;8.394;2022-12-18T02:12:27;75.30;;;27.20;;
45970;SDS011;31681;48.982;8.394;2022-12-18T02:15:13;68.23;;;24.83;;
45970;SDS011;31681;48.982;8.394;2022-12-18T02:17:55;75.57;;;23.83;;
45970;SDS011;31681;48.982;8.394;2022-12-18T02:20:45;60.70;;;21.97;;
45970;SDS011;31681;48.982;8.394;2022-12-18T02:28:45;56.97;;;20.07;;
45970;SDS011;31681;48.982;8.394;2022-12-18T02:31:27;65.40;;;23.87;;
45970;SDS011;31681;48.982;8.394;2022-12-18T02:33:58;51.77;;;22.07;;
45970;SDS011;31681;48.982;8.394;2022-12-18T02:36:32;65.23;;;24.33;;
45970;SDS011;31681;48.982;8.394;2022-12-18T02:38:59;54.90;;;18.43;;
45970;SDS011;31681;48.982;8.394;2022-12-18T02:41:28;47.10;;;19.60;;
45970;SDS011;31681;48.982;8.394;2022-12-18T02:43:56;56.27;;;20.67;;
45970;SDS011;31681;48.982;8.394;2022-12-18T02:46:29;50.07;;;18.70;;
45970;SDS011;31681;48.982;8.394;2022-12-18T02:49:06;58.03;;;21.37;;
45970;SDS011;31681;48.982;8.394;2022-12-18T02:51:40;50.47;;;20.23;;
45970;SDS011;31681;48.982;8.394;2022-12-18T02:54:21;59.30;;;21.47;;
45970;SDS011;31681;48.982;8.394;2022-12-18T02:57:01;56.23;;;20.93;;
45970;SDS011;31681;48.982;8.394;2022-12-18T02:59:42;64.27;;;21.40;;
45970;SDS011;31681;48.982;8.394;2022-12-18T03:02:20;56.50;;;21.83;;
45970;SDS011;31681;48.982;8.394;2022-12-18T03:04:55;54.87;;;20.73;;
45970;SDS011;31681;48.982;8.394;2022-12-18T03:07:28;48.70;;;17.53;;
45970;SDS011;31681;48.982;8.394;2022-12-18T03:10:04;56.47;;;20.27;;
45970;SDS011;31681;48.982;8.394;2022-12-18T03:12:38;60.20;;;21.17;;
45970;SDS011;31681;48.982;8.394;2022-12-18T03:17:57;57.53;;;21.57;;
45970;SDS011;31681;48.982;8.394;2022-12-18T03:20:29;55.17;;;21.37;;
45970;SDS011;31681;48.982;8.394;2022-12-18T03:22:59;63.67;;;20.67;;
45970;SDS011;31681;48.982;8.394;2022-12-18T03:25:32;46.37;;;19.20;;
45970;SDS011;31681;48.982;8.394;2022-12-18T03:28:01;49.07;;;17.03;;
45970;SDS011;31681;48.982;8.394;2022-12-18T03:30:31;46.10;;;18.43;;
45970;SDS011;31681;48.982;8.394;2022-12-18T03:33:01;53.93;;;20.87;;
45970;SDS011;31681;48.982;8.394;2022-12-18T03:35:35;47.10;;;20.47;;
45970;SDS011;31681;48.982;8.394;2022-12-18T03:38:04;50.57;;;20.53;;
45970;SDS011;31681;48.982;8.394;2022-12-18T03:40:36;46.13;;;19.13;;
45970;SDS011;31681;48.982;8.394;2022-12-18T03:43:16;47.67;;;19.57;;
45970;SDS011;31681;48.982;8.394;2022-12-18T03:45:54;46.40;;;17.50;;
45970;SDS011;31681;48.982;8.394;2022-12-18T03:48:36;43.13;;;17.93;;
45970;SDS011;31681;48.982;8.394;2022-12-18T03:51:22;48.50;;;17.33;;
45970;SDS011;31681;48.982;8.394;2022-12-18T03:54:00;42.60;;;18.53;;
45970;SDS011;31681;48.982;8.394;2022-12-18T03:56:34;41.70;;;17.63;;
45970;SDS011;31681;48.982;8.394;2022-12-18T03:59:10;38.40;;;16.37;;
45970;SDS011;31681;48.982;8.394;2022-12-18T04:01:40;53.73;;;19.27;;
45970;SDS011;31681;48.982;8.394;2022-12-18T04:04:11;47.33;;;19.93;;
45970;SDS011;31681;48.982;8.394;2022-12-18T04:06:40;45.97;;;17.97;;
45970;SDS011;31681;48.982;8.394;2022-12-18T04:09:09;41.17;;;16.63;;
45970;SDS011;31681;48.982;8.394;2022-12-18T04:11:39;58.10;;;20.07;;
45970;SDS011;31681;48.982;8.394;2022-12-18T04:14:09;59.83;;;22.43;;
45970;SDS011;31681;48.982;8.394;2022-12-18T04:16:35;54.53;;;19.97;;
45970;SDS011;31681;48.982;8.394;2022-12-18T04:19:03;50.30;;;21.07;;
45970;SDS011;31681;48.982;8.394;2022-12-18T04:21:35;54.53;;;21.40;;
45970;SDS011;31681;48.982;8.394;2022-12-18T04:24:00;57.77;;;19.33;;
45970;SDS011;31681;48.982;8.394;2022-12-18T04:26:27;59.03;;;19.87;;
45970;SDS011;31681;48.982;8.394;2022-12-18T04:29:13;56.73;;;21.23;;
45970;SDS011;31681;48.982;8.394;2022-12-18T04:31:38;54.37;;;20.83;;
45970;SDS011;31681;48.982;8.394;2022-12-18T04:34:04;63.07;;;19.93;;
45970;SDS011;31681;48.982;8.394;2022-12-18T04:36:35;59.23;;;21.97;;
45970;SDS011;31681;48.982;8.394;2022-12-18T04:39:01;68.70;;;21.33;;
45970;SDS011;31681;48.982;8.394;2022-12-18T04:41:26;63.30;;;21.43;;
45970;SDS011;31681;48.982;8.394;2022-12-18T04:43:52;60.27;;;21.57;;
45970;SDS011;31681;48.982;8.394;2022-12-18T04:46:18;71.13;;;23.73;;
45970;SDS011;31681;48.982;8.394;2022-12-18T04:48:45;65.87;;;20.60;;
45970;SDS011;31681;48.982;8.394;2022-12-18T04:51:11;56.57;;;20.90;;
45970;SDS011;31681;48.982;8.394;2022-12-18T04:53:57;47.93;;;19.30;;
45970;SDS011;31681;48.982;8.394;2022-12-18T04:56:22;60.73;;;21.57;;
45970;SDS011;31681;48.982;8.394;2022-12-18T04:58:48;52.43;;;20.40;;
45970;SDS011;31681;48.982;8.394;2022-12-18T05:01:15;57.23;;;20.50;;
45970;SDS011;31681;48.982;8.394;2022-12-18T05:03:42;63.43;;;20.13;;
45970;SDS011;31681;48.982;8.394;2022-12-18T05:06:07;53.07;;;21.73;;
45970;SDS011;31681;48.982;8.394;2022-12-18T05:08:33;48.17;;;20.47;;
45970;SDS011;31681;48.982;8.394;2022-12-18T05:11:00;55.90;;;19.33;;
45970;SDS011;31681;48.982;8.394;2022-12-18T05:13:26;52.23;;;18.67;;
45970;SDS011;31681;48.982;8.394;2022-12-18T05:15:52;59.93;;;20.13;;
45970;SDS011;31681;48.982;8.394;2022-12-18T05:18:18;61.10;;;21.10;;
45970;SDS011;31681;48.982;8.394;2022-12-18T05:20:43;62.37;;;20.23;;
45970;SDS011;31681;48.982;8.394;2022-12-18T05:23:08;63.43;;;21.57;;
45970;SDS011;31681;48.982;8.394;2022-12-18T05:25:34;51.83;;;19.87;;
45970;SDS011;31681;48.982;8.394;2022-12-18T05:27:59;50.43;;;18.20;;
45970;SDS011;31681;48.982;8.394;2022-12-18T05:30:25;58.10;;;22.93;;
45970;SDS011;31681;48.982;8.394;2022-12-18T05:32:50;48.97;;;20.87;;
45970;SDS011;31681;48.982;8.394;2022-12-18T05:35:15;53.03;;;19.10;;
45970;SDS011;31681;48.982;8.394;2022-12-18T05:37:41;61.57;;;22.17;;
45970;SDS011;31681;48.982;8.394;2022-12-18T05:40:06;48.23;;;18.27;;
45970;SDS011;31681;48.982;8.394;2022-12-18T05:42:32;57.17;;;19.57;;
45970;SDS011;31681;48.982;8.394;2022-12-18T05:44:57;46.80;;;17.47;;
45970;SDS011;31681;48.982;8.394;2022-12-18T05:47:23;51.07;;;18.83;;
45970;SDS011;31681;48.982;8.394;2022-12-18T05:49:48;53.53;;;18.80;;
45970;SDS011;31681;48.982;8.394;2022-12-18T05:52:13;47.03;;;20.13;;
45970;SDS011;31681;48.982;8.394;2022-12-18T05:54:39;47.93;;;17.23;;
45970;SDS011;31681;48.982;8.394;2022-12-18T05:57:04;42.73;;;16.47;;
45970;SDS011;31681;48.982;8.394;2022-12-18T05:59:30;59.97;;;21.10;;
45970;SDS011;31681;48.982;8.394;2022-12-18T06:01:55;48.07;;;18.97;;
45970;SDS011;31681;48.982;8.394;2022-12-18T06:04:20;51.50;;;17.67;;
45970;SDS011;31681;48.982;8.394;2022-12-18T06:06:46;47.27;;;17.80;;
45970;SDS011;31681;48.982;8.394;2022-12-18T06:09:11;46.00;;;17.70;;
45970;SDS011;31681;48.982;8.394;2022-12-18T06:11:37;52.03;;;18.47;;
45970;SDS011;31681;48.982;8.394;2022-12-18T06:14:03;54.63;;;21.20;;
45970;SDS011;31681;48.982;8.394;2022-12-18T06:16:30;49.43;;;18.47;;
45970;SDS011;31681;48.982;8.394;2022-12-18T06:18:56;57.27;;;18.83;;
45970;SDS011;31681;48.982;8.394;2022-12-18T06:21:22;54.70;;;19.13;;
45970;SDS011;31681;48.982;8.394;2022-12-18T06:23:48;45.73;;;18.63;;
45970;SDS011;31681;48.982;8.394;2022-12-18T06:26:13;56.13;;;20.03;;
45970;SDS011;31681;48.982;8.394;2022-12-18T06:28:39;48.47;;;17.93;;
45970;SDS011;31681;48.982;8.394;2022-12-18T06:31:05;63.83;;;21.53;;
45970;SDS011;31681;48.982;8.394;2022-12-18T06:33:32;55.43;;;21.67;;
45970;SDS011;31681;48.982;8.394;2022-12-18T06:36:02;56.17;;;21.90;;
45970;SDS011;31681;48.982;8.394;2022-12-18T06:38:30;61.93;;;21.83;;
45970;SDS011;31681;48.982;8.394;2022-12-18T06:40:56;59.27;;;21.83;;
45970;SDS011;31681;48.982;8.394;2022-12-18T06:43:22;50.40;;;17.17;;
45970;SDS011;31681;48.982;8.394;2022-12-18T06:45:47;56.40;;;21.23;;
45970;SDS011;31681;48.982;8.394;2022-12-18T06:48:18;56.70;;;21.23;;
45970;SDS011;31681;48.982;8.394;2022-12-18T06:50:44;65.87;;;22.73;;
45970;SDS011;31681;48.982;8.394;2022-12-18T06:53:10;69.80;;;22.03;;
45970;SDS011;31681;48.982;8.394;2022-12-18T06:55:35;54.73;;;18.20;;
45970;SDS011;31681;48.982;8.394;2022-12-18T06:58:00;61.40;;;21.17;;
45970;SDS011;31681;48.982;8.394;2022-12-18T07:00:26;71.27;;;23.80;;
45970;SDS011;31681;48.982;8.394;2022-12-18T07:02:51;62.43;;;21.50;;
45970;SDS011;31681;48.982;8.394;2022-12-18T07:05:16;66.20;;;22.70;;
45970;SDS011;31681;48.982;8.394;2022-12-18T07:07:42;58.13;;;20.53;;
45970;SDS011;31681;48.982;8.394;2022-12-18T07:10:07;63.70;;;19.40;;
45970;SDS011;31681;48.982;8.394;2022-12-18T07:12:33;68.07;;;22.90;;
45970;SDS011;31681;48.982;8.394;2022-12-18T07:14:58;61.73;;;20.37;;
45970;SDS011;31681;48.982;8.394;2022-12-18T07:17:23;58.33;;;21.37;;
45970;SDS011;31681;48.982;8.394;2022-12-18T07:19:49;60.87;;;19.90;;
45970;SDS011;31681;48.982;8.394;2022-12-18T07:22:14;54.33;;;20.87;;
45970;SDS011;31681;48.982;8.394;2022-12-18T07:24:39;65.27;;;22.67;;
45970;SDS011;31681;48.982;8.394;2022-12-18T07:27:05;62.63;;;22.43;;
45970;SDS011;31681;48.982;8.394;2022-12-18T07:29:30;70.10;;;22.63;;
45970;SDS011;31681;48.982;8.394;2022-12-18T07:31:55;69.07;;;19.67;;
45970;SDS011;31681;48.982;8.394;2022-12-18T07:34:21;60.70;;;21.43;;
45970;SDS011;31681;48.982;8.394;2022-12-18T07:36:46;68.07;;;23.27;;
45970;SDS011;31681;48.982;8.394;2022-12-18T07:39:12;53.40;;;20.30;;
45970;SDS011;31681;48.982;8.394;2022-12-18T07:41:37;56.30;;;20.57;;
45970;SDS011;31681;48.982;8.394;2022-12-18T07:44:11;61.10;;;19.97;;
45970;SDS011;31681;48.982;8.394;2022-12-18T07:46:36;51.77;;;19.60;;
45970;SDS011;31681;48.982;8.394;2022-12-18T07:49:02;59.20;;;20.17;;
45970;SDS011;31681;48.982;8.394;2022-12-18T07:51:27;59.07;;;19.60;;
45970;SDS011;31681;48.982;8.394;2022-12-18T07:53:53;53.20;;;18.80;;
45970;SDS011;31681;48.982;8.394;2022-12-18T07:56:18;56.60;;;18.47;;
45970;SDS011;31681;48.982;8.394;2022-12-18T07:58:44;58.33;;;19.23;;
45970;SDS011;31681;48.982;8.394;2022-12-18T08:01:10;61.30;;;20.50;;
45970;SDS011;31681;48.982;8.394;2022-12-18T08:03:37;67.30;;;22.07;;
45970;SDS011;31681;48.982;8.394;2022-12-18T08:06:05;54.50;;;19.37;;
45970;SDS011;31681;48.982;8.394;2022-12-18T08:08:33;53.63;;;20.10;;
45970;SDS011;31681;48.982;8.394;2022-12-18T08:10:59;61.27;;;20.67;;
45970;SDS011;31681;48.982;8.394;2022-12-18T08:13:25;48.87;;;18.63;;
45970;SDS011;31681;48.982;8.394;2022-12-18T08:15:59;56.13;;;18.87;;
45970;SDS011;31681;48.982;8.394;2022-12-18T08:18:26;53.77;;;18.03;;
45970;SDS011;31681;48.982;8.394;2022-12-18T08:20:52;60.83;;;22.33;;
45970;SDS011;31681;48.982;8.394;2022-12-18T08:23:18;56.47;;;18.43;;
45970;SDS011;31681;48.982;8.394;2022-12-18T08:25:44;47.97;;;17.03;;
45970;SDS011;31681;48.982;8.394;2022-12-18T08:28:09;54.40;;;19.93;;
45970;SDS011;31681;48.982;8.394;2022-12-18T08:30:35;55.13;;;18.73;;
45970;SDS011;31681;48.982;8.394;2022-12-18T08:33:00;54.23;;;18.17;;
45970;SDS011;31681;48.982;8.394;2022-12-18T08:35:26;58.10;;;18.50;;
45970;SDS011;31681;48.982;8.394;2022-12-18T08:37:52;64.83;;;21.60;;
45970;SDS011;31681;48.982;8.394;2022-12-18T08:40:17;66.60;;;21.80;;
45970;SDS011;31681;48.982;8.394;2022-12-18T08:42:42;67.33;;;23.80;;
45970;SDS011;31681;48.982;8.394;2022-12-18T08:45:27;49.83;;;19.87;;
45970;SDS011;31681;48.982;8.394;2022-12-18T08:47:52;61.23;;;22.07;;
45970;SDS011;31681;48.982;8.394;2022-12-18T08:50:18;53.10;;;20.93;;
45970;SDS011;31681;48.982;8.394;2022-12-18T08:52:44;49.37;;;18.70;;
45970;SDS011;31681;48.982;8.394;2022-12-18T08:55:10;77.47;;;27.60;;
45970;SDS011;31681;48.982;8.394;2022-12-18T08:57:35;68.23;;;22.37;;
45970;SDS011;31681;48.982;8.394;2022-12-18T09:00:01;57.80;;;21.47;;
45970;SDS011;31681;48.982;8.394;2022-12-18T09:02:26;57.90;;;20.00;;
45970;SDS011;31681;48.982;8.394;2022-12-18T09:04:53;50.33;;;20.03;;
45970;SDS011;31681;48.982;8.394;2022-12-18T09:07:18;49.27;;;18.90;;
45970;SDS011;31681;48.982;8.394;2022-12-18T09:09:44;53.93;;;20.97;;
45970;SDS011;31681;48.982;8.394;2022-12-18T09:12:09;55.47;;;19.20;;
45970;SDS011;31681;48.982;8.394;2022-12-18T09:14:35;49.30;;;19.07;;
45970;SDS011;31681;48.982;8.394;2022-12-18T09:17:01;43.00;;;17.73;;
45970;SDS011;31681;48.982;8.394;2022-12-18T09:19:26;55.23;;;20.07;;
45970;SDS011;31681;48.982;8.394;2022-12-18T09:21:52;50.43;;;18.37;;
45970;SDS011;31681;48.982;8.394;2022-12-18T09:24:17;60.27;;;21.50;;
45970;SDS011;31681;48.982;8.394;2022-12-18T09:26:43;57.50;;;19.80;;
45970;SDS011;31681;48.982;8.394;2022-12-18T09:29:08;57.40;;;21.10;;
45970;SDS011;31681;48.982;8.394;2022-12-18T09:31:34;58.97;;;22.43;;
45970;SDS011;31681;48.982;8.394;2022-12-18T09:34:01;57.63;;;19.27;;
45970;SDS011;31681;48.982;8.394;2022-12-18T09:36:26;54.33;;;22.53;;
45970;SDS011;31681;48.982;8.394;2022-12-18T09:38:51;58.70;;;24.00;;
45970;SDS011;31681;48.982;8.394;2022-12-18T09:41:27;61.70;;;22.07;;
45970;SDS011;31681;48.982;8.394;2022-12-18T09:43:58;53.03;;;20.90;;
45970;SDS011;31681;48.982;8.394;2022-12-18T09:46:29;59.17;;;18.63;;
45970;SDS011;31681;48.982;8.394;2022-12-18T09:48:59;58.40;;;20.20;;
45970;SDS011;31681;48.982;8.394;2022-12-18T09:51:29;55.10;;;18.10;;
45970;SDS011;31681;48.982;8.394;2022-12-18T09:54:04;55.83;;;19.50;;
45970;SDS011;31681;48.982;8.394;2022-12-18T09:56:34;65.83;;;21.73;;
45970;SDS011;31681;48.982;8.394;2022-12-18T09:59:03;58.30;;;22.67;;
45970;SDS011;31681;48.982;8.394;2022-12-18T10:01:30;56.17;;;20.93;;
45970;SDS011;31681;48.982;8.394;2022-12-18T10:03:57;60.70;;;23.57;;
45970;SDS011;31681;48.982;8.394;2022-12-18T10:09:24;52.33;;;19.77;;
45970;SDS011;31681;48.982;8.394;2022-12-18T10:12:01;49.90;;;19.60;;
45970;SDS011;31681;48.982;8.394;2022-12-18T10:20:05;51.07;;;19.53;;
45970;SDS011;31681;48.982;8.394;2022-12-18T10:25:34;59.37;;;20.63;;
45970;SDS011;31681;48.982;8.394;2022-12-18T10:28:15;62.53;;;21.27;;
45970;SDS011;31681;48.982;8.394;2022-12-18T10:30:42;51.50;;;20.83;;
45970;SDS011;31681;48.982;8.394;2022-12-18T10:33:16;59.63;;;21.30;;
45970;SDS011;31681;48.982;8.394;2022-12-18T10:35:43;59.57;;;22.50;;
45970;SDS011;31681;48.982;8.394;2022-12-18T10:40:55;72.20;;;24.27;;
45970;SDS011;31681;48.982;8.394;2022-12-18T10:43:33;56.23;;;22.37;;
45970;SDS011;31681;48.982;8.394;2022-12-18T10:48:25;57.50;;;22.57;;
45970;SDS011;31681;48.982;8.394;2022-12-18T10:50:51;70.43;;;25.83;;
45970;SDS011;31681;48.982;8.394;2022-12-18T10:53:21;60.43;;;23.13;;
45970;SDS011;31681;48.982;8.394;2022-12-18T10:55:55;67.60;;;21.37;;
45970;SDS011;31681;48.982;8.394;2022-12-18T11:03:40;69.10;;;22.43;;
45970;SDS011;31681;48.982;8.394;2022-12-18T11:06:08;64.70;;;22.60;;
45970;SDS011;31681;48.982;8.394;2022-12-18T11:08:40;60.87;;;21.63;;
45970;SDS011;31681;48.982;8.394;2022-12-18T11:11:15;65.20;;;23.17;;
45970;SDS011;31681;48.982;8.394;2022-12-18T11:13:54;63.43;;;24.70;;
45970;SDS011;31681;48.982;8.394;2022-12-18T11:16:28;72.27;;;26.10;;
45970;SDS011;31681;48.982;8.394;2022-12-18T11:22:01;57.87;;;20.13;;
45970;SDS011;31681;48.982;8.394;2022-12-18T11:24:42;61.00;;;22.37;;
45970;SDS011;31681;48.982;8.394;2022-12-18T11:27:13;66.23;;;22.67;;
45970;SDS011;31681;48.982;8.394;2022-12-18T11:29:43;62.03;;;22.30;;
45970;SDS011;31681;48.982;8.394;2022-12-18T11:32:31;58.73;;;22.50;;
45970;SDS011;31681;48.982;8.394;2022-12-18T11:37:40;65.83;;;22.07;;
45970;SDS011;31681;48.982;8.394;2022-12-18T11:40:14;67.80;;;23.43;;
45970;SDS011;31681;48.982;8.394;2022-12-18T11:45:35;60.90;;;23.23;;
45970;SDS011;31681;48.982;8.394;2022-12-18T11:48:15;60.57;;;22.57;;
45970;SDS011;31681;48.982;8.394;2022-12-18T11:51:02;60.67;;;22.93;;
45970;SDS011;31681;48.982;8.394;2022-12-18T11:53:33;64.97;;;21.30;;
45970;SDS011;31681;48.982;8.394;2022-12-18T11:56:12;59.00;;;22.60;;
45970;SDS011;31681;48.982;8.394;2022-12-18T12:04:31;64.33;;;23.37;;
45970;SDS011;31681;48.982;8.394;2022-12-18T12:16:03;59.37;;;23.87;;
45970;SDS011;31681;48.982;8.394;2022-12-18T12:29:23;59.67;;;22.10;;
45970;SDS011;31681;48.982;8.394;2022-12-18T12:32:18;62.77;;;23.37;;
45970;SDS011;31681;48.982;8.394;2022-12-18T12:35:12;55.90;;;21.60;;
45970;SDS011;31681;48.982;8.394;2022-12-18T12:40:36;61.57;;;22.57;;
45970;SDS011;31681;48.982;8.394;2022-12-18T12:43:31;61.70;;;25.47;;
45970;SDS011;31681;48.982;8.394;2022-12-18T12:48:33;78.20;;;27.03;;
45970;SDS011;31681;48.982;8.394;2022-12-18T12:51:06;71.73;;;25.93;;
45970;SDS011;31681;48.982;8.394;2022-12-18T12:53:36;62.07;;;24.50;;
45970;SDS011;31681;48.982;8.394;2022-12-18T12:56:04;67.70;;;26.80;;
45970;SDS011;31681;48.982;8.394;2022-12-18T12:58:37;77.63;;;28.03;;
45970;SDS011;31681;48.982;8.394;2022-12-18T13:07:00;65.50;;;24.50;;
45970;SDS011;31681;48.982;8.394;2022-12-18T13:09:31;59.80;;;25.60;;
45970;SDS011;31681;48.982;8.394;2022-12-18T13:12:02;66.67;;;26.50;;
45970;SDS011;31681;48.982;8.394;2022-12-18T13:14:47;65.43;;;23.23;;
45970;SDS011;31681;48.982;8.394;2022-12-18T13:19:52;64.47;;;26.23;;
45970;SDS011;31681;48.982;8.394;2022-12-18T13:22:36;56.47;;;23.73;;
45970;SDS011;31681;48.982;8.394;2022-12-18T13:28:07;63.87;;;23.47;;
45970;SDS011;31681;48.982;8.394;2022-12-18T13:43:36;59.97;;;23.37;;
45970;SDS011;31681;48.982;8.394;2022-12-18T13:48:52;54.63;;;22.87;;
45970;SDS011;31681;48.982;8.394;2022-12-18T13:51:22;58.80;;;24.50;;
45970;SDS011;31681;48.982;8.394;2022-12-18T13:56:59;57.53;;;22.80;;
45970;SDS011;31681;48.982;8.394;2022-12-18T13:59:35;47.70;;;22.13;;
45970;SDS011;31681;48.982;8.394;2022-12-18T14:02:09;54.87;;;21.13;;
45970;SDS011;31681;48.982;8.394;2022-12-18T14:04:39;56.13;;;22.83;;
45970;SDS011;31681;48.982;8.394;2022-12-18T14:07:06;61.20;;;22.97;;
45970;SDS011;31681;48.982;8.394;2022-12-18T14:09:39;53.87;;;22.97;;
45970;SDS011;31681;48.982;8.394;2022-12-18T14:12:12;57.83;;;23.00;;
45970;SDS011;31681;48.982;8.394;2022-12-18T14:15:01;52.77;;;23.13;;
45970;SDS011;31681;48.982;8.394;2022-12-18T14:17:28;63.33;;;28.73;;
45970;SDS011;31681;48.982;8.394;2022-12-18T14:19:53;64.13;;;25.83;;
45970;SDS011;31681;48.982;8.394;2022-12-18T14:22:23;57.90;;;24.33;;
45970;SDS011;31681;48.982;8.394;2022-12-18T14:27:45;62.20;;;26.07;;
45970;SDS011;31681;48.982;8.394;2022-12-18T14:30:32;64.20;;;24.93;;
45970;SDS011;31681;48.982;8.394;2022-12-18T14:33:01;62.07;;;25.73;;
45970;SDS011;31681;48.982;8.394;2022-12-18T14:35:29;54.77;;;23.90;;
45970;SDS011;31681;48.982;8.394;2022-12-18T14:38:09;56.07;;;24.17;;
45970;SDS011;31681;48.982;8.394;2022-12-18T14:40:34;57.03;;;23.20;;
45970;SDS011;31681;48.982;8.394;2022-12-18T14:42:59;53.53;;;23.37;;
45970;SDS011;31681;48.982;8.394;2022-12-18T14:45:38;59.90;;;24.93;;
45970;SDS011;31681;48.982;8.394;2022-12-18T14:48:08;62.67;;;25.07;;
45970;SDS011;31681;48.982;8.394;2022-12-18T14:50:40;54.67;;;21.30;;
45970;SDS011;31681;48.982;8.394;2022-12-18T14:53:06;51.23;;;23.50;;
45970;SDS011;31681;48.982;8.394;2022-12-18T14:55:31;58.60;;;24.00;;
45970;SDS011;31681;48.982;8.394;2022-12-18T14:57:57;58.80;;;25.07;;
45970;SDS011;31681;48.982;8.394;2022-12-18T15:00:23;56.17;;;24.27;;
45970;SDS011;31681;48.982;8.394;2022-12-18T15:02:54;58.63;;;23.20;;
45970;SDS011;31681;48.982;8.394;2022-12-18T15:05:28;56.87;;;23.27;;
45970;SDS011;31681;48.982;8.394;2022-12-18T15:07:55;51.83;;;22.77;;
45970;SDS011;31681;48.982;8.394;2022-12-18T15:10:23;51.43;;;23.23;;
45970;SDS011;31681;48.982;8.394;2022-12-18T15:18:01;56.63;;;24.03;;
45970;SDS011;31681;48.982;8.394;2022-12-18T15:23:05;59.60;;;24.80;;
45970;SDS011;31681;48.982;8.394;2022-12-18T15:25:39;63.37;;;25.30;;
45970;SDS011;31681;48.982;8.394;2022-12-18T15:28:15;62.13;;;24.87;;
45970;SDS011;31681;48.982;8.394;2022-12-18T15:33:30;52.40;;;22.33;;
45970;SDS011;31681;48.982;8.394;2022-12-18T15:35:58;50.60;;;22.97;;
45970;SDS011;31681;48.982;8.394;2022-12-18T15:38:24;58.03;;;24.60;;
45970;SDS011;31681;48.982;8.394;2022-12-18T15:40:49;56.37;;;23.27;;
45970;SDS011;31681;48.982;8.394;2022-12-18T15:43:14;58.50;;;24.37;;
45970;SDS011;31681;48.982;8.394;2022-12-18T15:46:03;52.23;;;23.80;;
45970;SDS011;31681;48.982;8.394;2022-12-18T15:48:40;57.43;;;25.07;;
45970;SDS011;31681;48.982;8.394;2022-12-18T15:51:28;64.03;;;26.23;;
45970;SDS011;31681;48.982;8.394;2022-12-18T15:53:58;67.50;;;27.83;;
45970;SDS011;31681;48.982;8.394;2022-12-18T15:56:26;64.23;;;25.77;;
45970;SDS011;31681;48.982;8.394;2022-12-18T15:59:11;58.93;;;25.73;;
45970;SDS011;31681;48.982;8.394;2022-12-18T16:01:40;64.53;;;27.23;;
45970;SDS011;31681;48.982;8.394;2022-12-18T16:04:06;59.80;;;26.50;;
45970;SDS011;31681;48.982;8.394;2022-12-18T16:06:34;68.17;;;28.63;;
45970;SDS011;31681;48.982;8.394;2022-12-18T16:08:59;67.37;;;29.33;;
45970;SDS011;31681;48.982;8.394;2022-12-18T16:11:25;76.10;;;30.10;;
45970;SDS011;31681;48.982;8.394;2022-12-18T16:14:22;74.67;;;28.07;;
45970;SDS011;31681;48.982;8.394;2022-12-18T16:16:50;72.10;;;27.87;;
45970;SDS011;31681;48.982;8.394;2022-12-18T16:19:17;67.70;;;28.00;;
45970;SDS011;31681;48.982;8.394;2022-12-18T16:21:43;67.07;;;27.83;;
45970;SDS011;31681;48.982;8.394;2022-12-18T16:24:17;79.97;;;28.93;;
45970;SDS011;31681;48.982;8.394;2022-12-18T16:26:47;69.77;;;28.30;;
45970;SDS011;31681;48.982;8.394;2022-12-18T16:29:13;70.33;;;27.67;;